createdAt,value
2017-09-22T00:02:24.116Z,211.43
2017-09-22T00:04:50.920Z,136.23
2017-09-22T00:07:17.741Z,152.43
2017-09-22T00:09:44.856Z,102.23
2017-09-22T00:12:11.904Z,135.47
2017-09-22T00:14:38.727Z,96.10
2017-09-22T00:17:05.812Z,90.63
2017-09-22T00:19:32.952Z,101.67
2017-09-22T00:21:59.751Z,92.47
2017-09-22T00:24:26.609Z,76.50
2017-09-22T00:26:53.680Z,71.87
2017-09-22T00:29:20.484Z,87.17
2017-09-22T00:31:47.316Z,84.47
2017-09-22T00:34:14.159Z,116.63
2017-09-22T00:36:40.960Z,122.37
2017-09-22T00:39:08.137Z,139.93
2017-09-22T00:41:35.009Z,120.77
2017-09-22T00:44:02.092Z,100.30
2017-09-22T00:46:28.952Z,80.33
2017-09-22T00:48:55.787Z,80.83
2017-09-22T00:51:22.615Z,122.53
2017-09-22T00:53:49.460Z,85.80
2017-09-22T00:56:16.512Z,78.10
2017-09-22T00:58:43.339Z,69.70
2017-09-22T01:01:10.518Z,71.83
2017-09-22T01:03:37.348Z,78.80
2017-09-22T01:06:04.188Z,65.23
2017-09-22T01:08:31.348Z,57.17
2017-09-22T01:10:58.498Z,56.57
2017-09-22T01:13:25.304Z,63.33
2017-09-22T01:15:52.164Z,68.40
2017-09-22T01:18:19.233Z,60.37
2017-09-22T01:20:46.052Z,70.77
2017-09-22T01:23:12.879Z,60.23
2017-09-22T01:25:39.704Z,67.97
2017-09-22T01:28:06.808Z,57.33
2017-09-22T01:30:33.663Z,71.77
2017-09-22T01:33:00.489Z,64.40
2017-09-22T01:35:27.291Z,55.93
2017-09-22T01:37:54.156Z,66.53
2017-09-22T01:40:21.332Z,63.53
2017-09-22T01:42:48.128Z,56.00
2017-09-22T01:45:14.989Z,54.97
2017-09-22T01:47:41.789Z,72.40
2017-09-22T01:50:08.589Z,84.57
2017-09-22T01:52:35.747Z,75.20
2017-09-22T01:55:02.548Z,82.20
2017-09-22T01:57:29.385Z,109.87
2017-09-22T01:59:56.212Z,55.87
2017-09-22T02:02:23.044Z,49.03
2017-09-22T02:04:49.901Z,56.87
2017-09-22T02:07:16.751Z,56.53
2017-09-22T02:09:43.548Z,43.33
2017-09-22T02:12:10.352Z,50.80
2017-09-22T02:14:37.220Z,42.27
2017-09-22T02:17:04.015Z,47.33
2017-09-22T02:19:30.816Z,43.70
2017-09-22T02:21:57.975Z,46.07
2017-09-22T02:24:25.124Z,39.33
2017-09-22T02:26:51.920Z,41.90
2017-09-22T02:29:18.779Z,42.33
2017-09-22T02:31:45.595Z,48.73
2017-09-22T02:34:12.696Z,45.27
2017-09-22T02:36:39.524Z,46.80
2017-09-22T02:39:06.328Z,59.97
2017-09-22T02:41:33.166Z,48.07
2017-09-22T02:44:00.272Z,50.53
2017-09-22T02:46:27.100Z,37.50
2017-09-22T02:48:53.924Z,39.77
2017-09-22T02:51:20.971Z,38.63
2017-09-22T02:53:48.060Z,48.10
2017-09-22T02:56:15.107Z,49.27
2017-09-22T02:58:41.932Z,48.53
2017-09-22T03:01:08.996Z,45.23
2017-09-22T03:03:35.820Z,43.93
2017-09-22T03:06:02.664Z,37.40
2017-09-22T03:08:29.732Z,49.73
2017-09-22T03:10:56.781Z,78.67
2017-09-22T03:13:23.925Z,55.53
2017-09-22T03:15:50.728Z,82.37
2017-09-22T03:18:17.820Z,69.73
2017-09-22T03:20:44.639Z,76.20
2017-09-22T03:23:11.468Z,55.63
2017-09-22T03:25:38.552Z,111.10
2017-09-22T03:28:05.702Z,92.43
2017-09-22T03:30:32.537Z,370.07
2017-09-22T03:32:59.372Z,691.07
2017-09-22T03:35:26.199Z,83.27
2017-09-22T03:37:53.280Z,898.33
2017-09-22T03:40:20.132Z,488.70
2017-09-22T03:42:47.280Z,340.17
2017-09-22T03:45:14.107Z,713.50
2017-09-22T03:47:41.417Z,523.73
2017-09-22T03:50:08.233Z,93.80
2017-09-22T03:52:35.060Z,133.30
2017-09-22T03:55:02.219Z,63.90
2017-09-22T03:57:29.040Z,73.53
2017-09-22T03:59:55.868Z,116.40
2017-09-22T04:02:22.941Z,89.30
2017-09-22T04:04:50.087Z,98.67
2017-09-22T04:07:17.244Z,117.80
2017-09-22T04:09:44.288Z,68.47
2017-09-22T04:12:11.435Z,72.20
2017-09-22T04:14:38.240Z,55.27
2017-09-22T04:17:05.076Z,82.00
2017-09-22T04:19:31.930Z,53.80
2017-09-22T04:21:58.755Z,47.57
2017-09-22T04:24:25.580Z,51.37
2017-09-22T04:26:52.700Z,48.33
2017-09-22T04:29:19.565Z,51.90
2017-09-22T04:31:46.403Z,127.60
2017-09-22T04:34:13.232Z,77.13
2017-09-22T04:36:40.056Z,50.37
2017-09-22T04:39:06.887Z,52.33
2017-09-22T04:41:34.072Z,42.93
2017-09-22T04:44:01.228Z,57.70
2017-09-22T04:46:28.034Z,43.07
2017-09-22T04:48:54.851Z,48.43
2017-09-22T04:51:21.657Z,67.40
2017-09-22T04:53:48.496Z,54.10
2017-09-22T04:56:15.325Z,45.30
2017-09-22T04:58:42.129Z,42.20
2017-09-22T05:01:09.227Z,65.13
2017-09-22T05:03:36.080Z,52.60
2017-09-22T05:06:02.879Z,48.00
2017-09-22T05:08:29.960Z,65.20
2017-09-22T05:10:56.817Z,48.17
2017-09-22T05:13:23.620Z,40.03
2017-09-22T05:15:50.421Z,42.60
2017-09-22T05:18:17.540Z,45.97
2017-09-22T05:20:44.372Z,59.00
2017-09-22T05:23:11.210Z,64.27
2017-09-22T05:25:38.032Z,47.13
2017-09-22T05:28:04.864Z,40.60
2017-09-22T05:30:31.689Z,35.13
2017-09-22T05:32:58.511Z,66.83
2017-09-22T05:35:25.371Z,73.10
2017-09-22T05:37:52.177Z,45.53
2017-09-22T05:40:19.024Z,35.63
2017-09-22T05:42:45.905Z,51.47
2017-09-22T05:45:12.711Z,76.20
2017-09-22T05:47:40.376Z,38.60
2017-09-22T05:50:07.192Z,34.30
2017-09-22T05:52:34.025Z,37.37
2017-09-22T05:55:00.871Z,38.07
2017-09-22T05:57:27.943Z,43.67
2017-09-22T05:59:54.743Z,40.73
2017-09-22T06:02:21.576Z,35.03
2017-09-22T06:04:48.757Z,72.17
2017-09-22T06:07:15.816Z,42.90
2017-09-22T06:09:42.714Z,48.40
2017-09-22T06:12:09.536Z,48.87
2017-09-22T06:14:36.472Z,61.13
2017-09-22T06:17:03.610Z,91.83
2017-09-22T06:19:30.660Z,771.47
2017-09-22T06:21:57.456Z,334.70
2017-09-22T06:24:24.310Z,58.07
2017-09-22T06:26:51.108Z,65.53
2017-09-22T06:29:18.240Z,44.23
2017-09-22T06:31:45.086Z,75.13
2017-09-22T06:34:12.233Z,33.33
2017-09-22T06:36:39.386Z,27.30
2017-09-22T06:39:06.640Z,35.47
2017-09-22T06:41:33.468Z,112.83
2017-09-22T06:44:00.275Z,44.47
2017-09-22T06:46:27.339Z,60.30
2017-09-22T06:48:54.165Z,88.80
2017-09-22T06:51:20.962Z,34.77
2017-09-22T06:53:47.788Z,36.47
2017-09-22T06:56:14.615Z,46.30
2017-09-22T06:58:41.467Z,47.63
2017-09-22T07:01:08.280Z,39.13
2017-09-22T07:03:35.092Z,55.93
2017-09-22T07:06:01.901Z,32.97
2017-09-22T07:08:28.732Z,69.93
2017-09-22T07:10:55.569Z,54.17
2017-09-22T07:13:22.588Z,37.60
2017-09-22T07:15:49.446Z,31.60
2017-09-22T07:18:16.270Z,56.13
2017-09-22T07:20:43.060Z,70.57
2017-09-22T07:23:10.220Z,295.70
2017-09-22T07:25:37.048Z,27.77
2017-09-22T07:28:04.108Z,31.37
2017-09-22T07:30:30.957Z,136.93
2017-09-22T07:32:57.778Z,25.33
2017-09-22T07:35:24.609Z,31.70
2017-09-22T07:37:51.428Z,76.07
2017-09-22T07:40:18.236Z,21.17
2017-09-22T07:42:45.068Z,19.50
2017-09-22T07:45:11.913Z,21.00
2017-09-22T07:47:39.059Z,22.57
2017-09-22T07:50:05.855Z,30.77
2017-09-22T07:52:32.684Z,27.50
2017-09-22T07:54:59.491Z,25.00
2017-09-22T07:57:26.340Z,29.53
2017-09-22T07:59:53.480Z,33.80
2017-09-22T08:02:20.300Z,35.80
2017-09-22T08:04:47.101Z,45.80
2017-09-22T08:07:14.213Z,104.30
2017-09-22T08:09:41.016Z,81.00
2017-09-22T08:12:07.848Z,55.43
2017-09-22T08:14:34.696Z,73.77
2017-09-22T08:17:01.519Z,36.27
2017-09-22T08:19:28.322Z,28.50
2017-09-22T08:21:55.176Z,25.37
2017-09-22T08:24:22.229Z,23.50
2017-09-22T08:26:49.263Z,20.73
2017-09-22T08:29:16.422Z,19.33
2017-09-22T08:31:43.568Z,16.37
2017-09-22T08:34:10.388Z,17.50
2017-09-22T08:36:37.216Z,18.60
2017-09-22T08:39:04.024Z,22.33
2017-09-22T08:41:30.843Z,32.17
2017-09-22T08:43:57.667Z,15.63
2017-09-22T08:46:24.732Z,12.23
2017-09-22T08:48:51.552Z,11.73
2017-09-22T08:51:18.491Z,16.20
2017-09-22T08:53:45.316Z,14.83
2017-09-22T08:56:12.409Z,13.20
2017-09-22T08:58:39.499Z,11.27
2017-09-22T09:01:06.604Z,11.87
2017-09-22T09:03:33.404Z,14.97
2017-09-22T09:06:00.255Z,26.43
2017-09-22T09:08:27.336Z,15.20
2017-09-22T09:10:54.384Z,13.40
2017-09-22T09:13:21.537Z,9.93
2017-09-22T09:15:48.336Z,11.90
2017-09-22T09:18:15.156Z,7.80
2017-09-22T09:20:41.980Z,8.30
2017-09-22T09:23:09.112Z,9.17
2017-09-22T09:25:35.907Z,5.50
2017-09-22T09:28:02.792Z,5.20
2017-09-22T09:30:29.571Z,8.13
2017-09-22T09:32:56.688Z,8.00
2017-09-22T09:35:23.506Z,4.93
2017-09-22T09:37:50.327Z,5.50
2017-09-22T09:40:17.423Z,4.13
2017-09-22T09:42:44.572Z,4.20
2017-09-22T09:45:11.620Z,4.40
2017-09-22T09:47:38.668Z,4.87
2017-09-22T09:50:05.529Z,3.17
2017-09-22T09:52:32.667Z,4.43
2017-09-22T09:55:00.136Z,8.93
2017-09-22T09:57:27.051Z,3.40
2017-09-22T09:59:54.331Z,2.80
2017-09-22T10:02:21.116Z,2.63
2017-09-22T10:04:47.967Z,1.40
2017-09-22T10:07:14.765Z,5.33
2017-09-22T10:09:41.793Z,7.57
2017-09-22T10:12:08.632Z,1.57
2017-09-22T10:14:35.476Z,4.00
2017-09-22T10:17:02.293Z,3.40
2017-09-22T10:19:29.108Z,4.50
2017-09-22T10:21:56.216Z,4.50
2017-09-22T10:24:23.259Z,7.63
2017-09-22T10:26:50.101Z,6.07
2017-09-22T10:29:16.913Z,2.10
2017-09-22T10:31:43.991Z,5.57
2017-09-22T10:34:10.840Z,3.30
2017-09-22T10:36:37.888Z,2.77
2017-09-22T10:39:04.720Z,6.10
2017-09-22T10:41:31.562Z,3.60
2017-09-22T10:43:58.351Z,4.50
2017-09-22T10:46:25.464Z,3.40
2017-09-22T10:48:52.296Z,2.92
2017-09-22T10:51:19.105Z,4.13
2017-09-22T10:53:45.892Z,4.10
2017-09-22T10:56:13.044Z,3.33
2017-09-22T10:58:39.852Z,3.50
2017-09-22T11:01:06.652Z,4.78
2017-09-22T11:03:33.480Z,4.47
2017-09-22T11:06:00.293Z,4.25
2017-09-22T11:08:27.364Z,4.03
2017-09-22T11:10:54.509Z,2.70
2017-09-22T11:13:21.556Z,5.20
2017-09-22T11:15:48.384Z,5.03
2017-09-22T11:18:15.200Z,3.50
2017-09-22T11:20:42.004Z,4.97
2017-09-22T11:23:08.825Z,4.80
2017-09-22T11:25:35.985Z,2.20
2017-09-22T11:28:03.133Z,12.13
2017-09-22T11:30:29.956Z,12.07
2017-09-22T11:32:57.124Z,3.30
2017-09-22T11:35:24.171Z,3.65
2017-09-22T11:37:50.972Z,2.67
2017-09-22T11:40:17.833Z,2.33
2017-09-22T11:42:44.631Z,4.00
2017-09-22T11:45:11.744Z,4.55
2017-09-22T11:47:38.565Z,1.92
2017-09-22T11:50:05.362Z,3.33
2017-09-22T11:52:32.172Z,1.73
2017-09-22T11:54:59.320Z,2.58
2017-09-22T11:57:26.116Z,2.78
2017-09-22T11:59:52.931Z,1.75
2017-09-22T12:02:19.772Z,1.77
2017-09-22T12:04:46.904Z,1.70
2017-09-22T12:07:13.753Z,1.33
2017-09-22T12:09:40.891Z,1.25
2017-09-22T12:12:08.048Z,3.20
2017-09-22T12:14:35.195Z,1.30
2017-09-22T12:17:02.044Z,2.17
2017-09-22T12:19:28.848Z,1.30
2017-09-22T12:21:56.389Z,1.67
2017-09-22T12:24:23.240Z,1.65
2017-09-22T12:26:50.366Z,1.05
2017-09-22T12:29:17.197Z,1.40
2017-09-22T12:31:44.061Z,3.20
2017-09-22T12:34:11.170Z,2.10
2017-09-22T12:36:37.989Z,1.92
2017-09-22T12:39:04.905Z,1.70
2017-09-22T12:41:33.321Z,1.90
2017-09-22T12:44:00.374Z,1.48
2017-09-22T12:46:27.244Z,2.55
2017-09-22T12:48:54.129Z,1.37
2017-09-22T12:51:21.232Z,7.55
2017-09-22T12:53:48.125Z,1.57
2017-09-22T12:56:14.935Z,3.03
2017-09-22T12:58:41.772Z,2.70
2017-09-22T13:01:08.606Z,1.70
2017-09-22T13:03:35.457Z,4.87
2017-09-22T13:06:02.293Z,1.70
2017-09-22T13:08:29.164Z,2.70
2017-09-22T13:10:55.953Z,2.93
2017-09-22T13:13:22.752Z,3.42
2017-09-22T13:15:49.596Z,2.53
2017-09-22T13:18:16.385Z,3.42
2017-09-22T13:20:43.228Z,3.70
2017-09-22T13:23:11.290Z,2.42
2017-09-22T13:25:38.100Z,2.78
2017-09-22T13:28:05.110Z,3.15
2017-09-22T13:30:32.266Z,2.05
2017-09-22T13:32:59.108Z,1.60
2017-09-22T13:35:26.136Z,2.80
2017-09-22T13:37:53.032Z,2.67
2017-09-22T13:40:20.141Z,1.95
2017-09-22T13:42:47.299Z,1.83
2017-09-22T13:45:14.180Z,4.50
2017-09-22T13:47:40.975Z,2.60
2017-09-22T13:50:07.812Z,4.23
2017-09-22T13:52:34.634Z,9.55
2017-09-22T13:55:01.446Z,3.12
2017-09-22T13:57:28.264Z,3.47
2017-09-22T13:59:55.112Z,2.58
2017-09-22T14:02:21.927Z,4.37
2017-09-22T14:04:48.973Z,2.20
2017-09-22T14:07:15.799Z,3.00
2017-09-22T14:09:42.604Z,2.77
2017-09-22T14:12:09.404Z,3.53
2017-09-22T14:14:36.244Z,7.60
2017-09-22T14:17:03.287Z,2.43
2017-09-22T14:19:30.098Z,4.70
2017-09-22T14:21:56.946Z,7.00
2017-09-22T14:24:23.789Z,5.50
2017-09-22T14:26:50.869Z,6.00
2017-09-22T14:29:17.704Z,7.50
2017-09-22T14:31:44.759Z,4.60
2017-09-22T14:34:11.571Z,3.80
2017-09-22T14:36:38.656Z,2.50
2017-09-22T14:39:05.496Z,2.63
2017-09-22T14:41:32.317Z,7.73
2017-09-22T14:43:59.147Z,2.33
2017-09-22T14:46:25.973Z,3.10
2017-09-22T14:48:52.825Z,3.87
2017-09-22T14:51:19.672Z,3.22
2017-09-22T14:53:46.488Z,2.90
2017-09-22T14:56:13.301Z,2.97
2017-09-22T14:58:40.152Z,2.33
2017-09-22T15:01:07.144Z,2.40
2017-09-22T15:03:34.823Z,2.87
2017-09-22T15:06:01.638Z,2.70
2017-09-22T15:08:28.477Z,2.27
2017-09-22T15:10:55.288Z,3.53
2017-09-22T15:13:22.150Z,4.03
2017-09-22T15:15:48.993Z,3.87
2017-09-22T15:18:15.820Z,3.93
2017-09-22T15:20:42.636Z,3.60
2017-09-22T15:23:09.456Z,2.80
2017-09-22T15:25:36.251Z,2.77
2017-09-22T15:28:03.108Z,2.10
2017-09-22T15:30:29.964Z,4.80
2017-09-22T15:32:56.796Z,6.13
2017-09-22T15:35:23.632Z,12.37
2017-09-22T15:37:50.447Z,5.13
2017-09-22T15:40:17.240Z,4.20
2017-09-22T15:42:44.140Z,3.53
2017-09-22T15:45:10.959Z,3.50
2017-09-22T15:47:37.772Z,2.80
2017-09-22T15:50:04.869Z,3.70
2017-09-22T15:52:31.700Z,3.20
2017-09-22T15:54:58.485Z,8.37
2017-09-22T15:57:25.328Z,5.13
2017-09-22T15:59:52.444Z,2.80
2017-09-22T16:02:19.490Z,2.87
2017-09-22T16:04:46.312Z,4.70
2017-09-22T16:07:13.107Z,9.60
2017-09-22T16:09:39.928Z,7.00
2017-09-22T16:12:06.765Z,3.57
2017-09-22T16:14:33.631Z,9.93
2017-09-22T16:17:00.752Z,9.30
2017-09-22T16:19:27.593Z,7.47
2017-09-22T16:21:54.376Z,5.90
2017-09-22T16:24:22.324Z,4.00
2017-09-22T16:26:49.136Z,6.80
2017-09-22T16:29:15.928Z,4.00
2017-09-22T16:31:42.720Z,3.83
2017-09-22T16:34:09.536Z,6.27
2017-09-22T16:36:36.352Z,5.00
2017-09-22T16:39:03.172Z,5.70
2017-09-22T16:41:30.064Z,6.67
2017-09-22T16:43:56.930Z,5.23
2017-09-22T16:46:24.010Z,6.73
2017-09-22T16:48:51.159Z,7.70
2017-09-22T16:51:18.305Z,7.67
2017-09-22T16:53:45.169Z,9.80
2017-09-22T16:56:12.081Z,10.30
2017-09-22T16:58:38.919Z,12.53
2017-09-22T17:01:05.785Z,11.20
2017-09-22T17:03:32.634Z,15.60
2017-09-22T17:05:59.478Z,7.87
2017-09-22T17:08:26.322Z,9.60
2017-09-22T17:10:53.182Z,7.43
2017-09-22T17:13:20.309Z,6.77
2017-09-22T17:15:47.193Z,7.20
2017-09-22T17:18:14.075Z,7.50
2017-09-22T17:20:40.910Z,8.47
2017-09-22T17:23:07.753Z,8.43
2017-09-22T17:25:34.939Z,11.43
2017-09-22T17:28:02.118Z,8.50
2017-09-22T17:30:28.929Z,8.77
2017-09-22T17:32:56.086Z,9.90
2017-09-22T17:35:23.238Z,11.83
2017-09-22T17:37:50.095Z,21.80
2017-09-22T17:40:17.008Z,13.23
2017-09-22T17:42:43.964Z,11.40
2017-09-22T17:45:10.895Z,11.30
2017-09-22T17:47:37.832Z,10.27
2017-09-22T17:50:04.712Z,13.37
2017-09-22T17:52:31.847Z,7.43
2017-09-22T17:54:58.759Z,22.43
2017-09-22T17:57:25.956Z,18.70
2017-09-22T17:59:52.878Z,16.83
2017-09-22T18:02:19.791Z,8.00
2017-09-22T18:04:46.659Z,12.40
2017-09-22T18:07:13.562Z,10.27
2017-09-22T18:09:40.473Z,18.23
2017-09-22T18:12:07.366Z,9.03
2017-09-22T18:14:34.257Z,9.83
2017-09-22T18:17:01.116Z,5.90
2017-09-22T18:19:28.030Z,7.87
2017-09-22T18:21:54.959Z,10.97
2017-09-22T18:24:21.852Z,10.77
2017-09-22T18:26:48.984Z,6.13
2017-09-22T18:29:16.898Z,6.53
2017-09-22T18:31:43.791Z,5.23
2017-09-22T18:34:10.703Z,4.70
2017-09-22T18:36:37.555Z,5.30
2017-09-22T18:39:04.464Z,6.17
2017-09-22T18:41:31.363Z,6.50
2017-09-22T18:43:58.263Z,7.17
2017-09-22T18:46:25.231Z,8.90
2017-09-22T18:48:52.112Z,5.40
2017-09-22T18:51:18.997Z,7.80
2017-09-22T18:53:45.865Z,5.80
2017-09-22T18:56:13.041Z,6.53
2017-09-22T18:58:39.859Z,10.27
2017-09-22T19:01:06.695Z,6.87
2017-09-22T19:03:33.539Z,5.20
2017-09-22T19:06:00.389Z,7.50
2017-09-22T19:08:27.221Z,7.83
2017-09-22T19:10:54.058Z,6.50
2017-09-22T19:13:20.914Z,5.93
2017-09-22T19:15:47.775Z,6.50
2017-09-22T19:18:14.617Z,14.20
2017-09-22T19:20:41.476Z,7.67
2017-09-22T19:23:08.354Z,11.13
2017-09-22T19:25:35.174Z,10.90
2017-09-22T19:28:02.319Z,20.77
2017-09-22T19:30:29.422Z,17.43
2017-09-22T19:32:56.618Z,20.50
2017-09-22T19:35:23.494Z,17.10
2017-09-22T19:37:50.713Z,16.90
2017-09-22T19:40:17.570Z,21.00
2017-09-22T19:42:44.449Z,15.77
2017-09-22T19:45:11.338Z,15.13
2017-09-22T19:47:38.198Z,14.70
2017-09-22T19:50:05.337Z,14.10
2017-09-22T19:52:32.211Z,16.37
2017-09-22T19:54:59.074Z,25.27
2017-09-22T19:57:25.910Z,21.50
2017-09-22T19:59:52.820Z,14.63
2017-09-22T20:02:19.969Z,19.00
2017-09-22T20:04:46.829Z,19.80
2017-09-22T20:07:13.962Z,18.90
2017-09-22T20:09:41.107Z,13.57
2017-09-22T20:12:07.982Z,14.83
2017-09-22T20:14:34.874Z,13.53
2017-09-22T20:17:01.701Z,10.97
2017-09-22T20:19:28.784Z,14.73
2017-09-22T20:21:55.634Z,11.23
2017-09-22T20:24:22.769Z,11.77
2017-09-22T20:26:49.621Z,9.73
2017-09-22T20:29:16.494Z,11.30
2017-09-22T20:31:43.381Z,11.00
2017-09-22T20:34:10.225Z,11.03
2017-09-22T20:36:37.095Z,8.60
2017-09-22T20:39:03.965Z,9.33
2017-09-22T20:41:31.085Z,13.10
2017-09-22T20:43:57.959Z,18.80
2017-09-22T20:46:25.083Z,10.90
2017-09-22T20:48:52.226Z,8.73
2017-09-22T20:51:19.073Z,8.27
2017-09-22T20:53:45.907Z,12.27
2017-09-22T20:56:12.775Z,11.73
2017-09-22T20:58:39.646Z,10.03
2017-09-22T21:01:06.490Z,8.53
2017-09-22T21:03:33.345Z,11.40
2017-09-22T21:06:00.243Z,14.87
2017-09-22T21:08:27.309Z,15.23
2017-09-22T21:10:54.125Z,11.80
2017-09-22T21:13:21.206Z,9.80
2017-09-22T21:15:48.055Z,12.30
2017-09-22T21:20:52.646Z,15.90
2017-09-22T21:23:19.535Z,21.80
2017-09-22T21:25:46.658Z,12.23
2017-09-22T21:28:13.501Z,8.30
2017-09-22T21:30:40.645Z,10.10
2017-09-22T21:33:07.489Z,12.37
2017-09-22T21:35:34.646Z,9.83
2017-09-22T21:38:01.494Z,9.10
2017-09-22T21:40:28.313Z,15.97
2017-09-22T21:42:55.184Z,11.73
2017-09-22T21:45:22.321Z,17.27
2017-09-22T21:47:49.170Z,13.50
2017-09-22T21:50:16.061Z,17.87
2017-09-22T21:52:43.158Z,17.07
2017-09-22T21:55:10.310Z,17.80
2017-09-22T21:57:37.458Z,20.30
2017-09-22T22:00:04.305Z,9.70
2017-09-22T22:02:31.149Z,16.97
2017-09-22T22:04:58.026Z,13.90
2017-09-22T22:07:25.133Z,18.43
2017-09-22T22:09:51.967Z,17.53
2017-09-22T22:12:19.129Z,13.03
2017-09-22T22:14:46.282Z,9.77
2017-09-22T22:17:13.429Z,19.73
2017-09-22T22:19:40.305Z,24.70
2017-09-22T22:22:07.164Z,20.67
2017-09-22T22:24:34.049Z,16.30
2017-09-22T22:27:00.898Z,21.00
2017-09-22T22:29:27.809Z,21.17
2017-09-22T22:31:54.645Z,19.73
2017-09-22T22:34:21.521Z,18.00
2017-09-22T22:36:54.110Z,25.93
2017-09-22T22:39:20.985Z,21.90
2017-09-22T22:41:47.818Z,18.10
2017-09-22T22:44:14.650Z,21.07
2017-09-22T22:46:41.527Z,18.20
2017-09-22T22:49:08.381Z,21.73
2017-09-22T22:51:35.249Z,25.97
2017-09-22T22:54:02.431Z,23.20
2017-09-22T22:56:29.259Z,26.90
2017-09-22T22:58:56.097Z,27.90
2017-09-22T23:01:22.941Z,25.03
2017-09-22T23:03:49.790Z,26.20
2017-09-22T23:06:16.673Z,29.87
2017-09-22T23:08:43.538Z,24.67
2017-09-22T23:11:10.405Z,30.73
2017-09-22T23:13:37.274Z,16.27
2017-09-22T23:16:04.137Z,22.83
2017-09-22T23:18:31.205Z,26.80
2017-09-22T23:20:58.074Z,21.47
2017-09-22T23:23:24.960Z,24.13
2017-09-22T23:25:51.810Z,22.20
2017-09-22T23:28:18.666Z,37.13
2017-09-22T23:30:45.529Z,30.93
2017-09-22T23:33:12.362Z,26.27
2017-09-22T23:35:39.197Z,32.57
2017-09-22T23:38:06.076Z,19.67
2017-09-22T23:40:32.909Z,26.53
2017-09-22T23:42:59.763Z,35.83
2017-09-22T23:45:26.953Z,37.97
2017-09-22T23:47:53.801Z,34.63
2017-09-22T23:50:20.637Z,45.20
2017-09-22T23:52:47.786Z,36.60
2017-09-22T23:55:14.884Z,26.37
2017-09-22T23:57:41.705Z,26.60
